createdAt,value
2017-10-10T00:01:32.661Z,101010
2017-10-10T00:03:59.216Z,101008
2017-10-10T00:06:25.475Z,101011
2017-10-10T00:08:51.723Z,101006
2017-10-10T00:11:18.014Z,101005
2017-10-10T00:13:44.254Z,101007
2017-10-10T00:16:10.484Z,101001
2017-10-10T00:18:36.737Z,101003
2017-10-10T00:21:02.979Z,101006
2017-10-10T00:23:29.954Z,101003
2017-10-10T00:25:56.223Z,101006
2017-10-10T00:28:22.456Z,101005
2017-10-10T00:30:48.682Z,101001
2017-10-10T00:33:15.239Z,101000
2017-10-10T00:35:41.475Z,100992
2017-10-10T00:38:08.442Z,100993
2017-10-10T00:40:34.742Z,100987
2017-10-10T00:43:01.002Z,100986
2017-10-10T00:45:27.259Z,100984
2017-10-10T00:47:53.573Z,100981
2017-10-10T00:50:19.837Z,100978
2017-10-10T00:52:46.840Z,100978
2017-10-10T00:55:13.158Z,100981
2017-10-10T00:57:40.177Z,100974
2017-10-10T01:00:06.434Z,100970
2017-10-10T01:02:33.534Z,100968
2017-10-10T01:04:59.790Z,100968
2017-10-10T01:07:26.021Z,100967
2017-10-10T01:09:53.058Z,100964
2017-10-10T01:12:19.286Z,100970
2017-10-10T01:14:45.569Z,100962
2017-10-10T01:17:12.089Z,100954
2017-10-10T01:19:38.313Z,100953
2017-10-10T01:22:04.590Z,100954
2017-10-10T01:24:30.895Z,100950
2017-10-10T01:26:57.153Z,100948
2017-10-10T01:29:23.421Z,100947
2017-10-10T01:31:49.724Z,100941
2017-10-10T01:34:15.985Z,100934
2017-10-10T01:36:42.262Z,100935
2017-10-10T01:39:08.555Z,100930
2017-10-10T01:41:34.783Z,100924
2017-10-10T01:44:01.034Z,100926
2017-10-10T01:46:27.304Z,100917
2017-10-10T01:48:54.296Z,100915
2017-10-10T01:51:20.550Z,100916
2017-10-10T01:53:46.854Z,100909
2017-10-10T01:56:13.122Z,100901
2017-10-10T01:58:39.366Z,100903
2017-10-10T02:01:06.399Z,100901
2017-10-10T02:03:32.685Z,100902
2017-10-10T02:05:58.944Z,100895
2017-10-10T02:08:25.251Z,100896
2017-10-10T02:10:51.523Z,100891
2017-10-10T02:13:18.492Z,100894
2017-10-10T02:15:45.553Z,100888
2017-10-10T02:18:11.774Z,100882
2017-10-10T02:20:38.029Z,100880
2017-10-10T02:23:04.297Z,100879
2017-10-10T02:25:30.562Z,100872
2017-10-10T02:27:56.791Z,100872
2017-10-10T02:30:23.371Z,100874
2017-10-10T02:32:49.598Z,100876
2017-10-10T02:35:15.848Z,100880
2017-10-10T02:37:42.149Z,100877
2017-10-10T02:40:08.407Z,100874
2017-10-10T02:42:34.654Z,100872
2017-10-10T02:45:01.695Z,100864
2017-10-10T02:47:28.687Z,100861
2017-10-10T02:49:54.960Z,100863
2017-10-10T02:52:21.418Z,100867
2017-10-10T02:54:47.688Z,100865
2017-10-10T02:57:13.930Z,100861
2017-10-10T02:59:40.341Z,100864
2017-10-10T03:02:06.566Z,100866
2017-10-10T03:04:32.789Z,100864
2017-10-10T03:06:59.118Z,100861
2017-10-10T03:09:25.346Z,100858
2017-10-10T03:11:51.579Z,100857
2017-10-10T03:14:17.834Z,100851
2017-10-10T03:16:44.077Z,100854
2017-10-10T03:19:10.309Z,100852
2017-10-10T03:21:36.586Z,100848
2017-10-10T03:24:02.822Z,100848
2017-10-10T03:26:29.044Z,100845
2017-10-10T03:28:55.309Z,100843
2017-10-10T03:31:21.540Z,100843
2017-10-10T03:33:47.766Z,100846
2017-10-10T03:36:14.127Z,100842
2017-10-10T03:38:41.206Z,100841
2017-10-10T03:41:07.438Z,100837
2017-10-10T03:43:33.794Z,100838
2017-10-10T03:46:00.023Z,100833
2017-10-10T03:48:26.254Z,100832
2017-10-10T03:50:52.609Z,100829
2017-10-10T03:53:19.573Z,100829
2017-10-10T03:55:45.799Z,100828
2017-10-10T03:58:12.816Z,100825
2017-10-10T04:00:39.040Z,100820
2017-10-10T04:03:05.267Z,100816
2017-10-10T04:05:31.619Z,100817
2017-10-10T04:07:58.613Z,100812
2017-10-10T04:10:25.980Z,100808
2017-10-10T04:12:52.426Z,100805
2017-10-10T04:15:18.670Z,100803
2017-10-10T04:17:44.924Z,100798
2017-10-10T04:20:11.520Z,100803
2017-10-10T04:22:37.774Z,100800
2017-10-10T04:25:05.318Z,100798
2017-10-10T04:27:33.088Z,100803
2017-10-10T04:30:00.101Z,100798
2017-10-10T04:32:26.501Z,100803
2017-10-10T04:34:52.798Z,100803
2017-10-10T04:37:19.094Z,100805
2017-10-10T04:39:45.394Z,100807
2017-10-10T04:42:12.068Z,100805
2017-10-10T04:44:39.102Z,100802
2017-10-10T04:47:05.359Z,100797
2017-10-10T04:49:31.649Z,100804
2017-10-10T04:51:57.904Z,100809
2017-10-10T04:54:24.197Z,100806
2017-10-10T04:56:50.667Z,100810
2017-10-10T04:59:18.100Z,100810
2017-10-10T05:01:45.184Z,100809
2017-10-10T05:04:11.501Z,100804
2017-10-10T05:06:37.788Z,100802
2017-10-10T05:09:04.119Z,100806
2017-10-10T05:11:30.566Z,100803
2017-10-10T05:13:57.108Z,100794
2017-10-10T05:16:23.362Z,100801
2017-10-10T05:18:49.784Z,100801
2017-10-10T05:21:16.296Z,100799
2017-10-10T05:23:43.385Z,100798
2017-10-10T05:26:10.046Z,100794
2017-10-10T05:28:37.093Z,100798
2017-10-10T05:31:04.133Z,100789
2017-10-10T05:33:31.305Z,100793
2017-10-10T05:35:58.145Z,100795
2017-10-10T05:38:24.456Z,100792
2017-10-10T05:40:51.660Z,100793
2017-10-10T05:43:17.963Z,100793
2017-10-10T05:45:44.231Z,100791
2017-10-10T05:48:10.527Z,100789
2017-10-10T05:50:36.766Z,100787
2017-10-10T05:53:03.010Z,100791
2017-10-10T05:55:30.199Z,100793
2017-10-10T05:57:57.225Z,100790
2017-10-10T06:00:23.494Z,100790
2017-10-10T06:02:50.117Z,100790
2017-10-10T06:05:17.108Z,100786
2017-10-10T06:07:43.406Z,100793
2017-10-10T06:10:09.760Z,100797
2017-10-10T06:12:36.003Z,100797
2017-10-10T06:15:02.360Z,100799
2017-10-10T06:17:28.712Z,100800
2017-10-10T06:19:55.743Z,100799
2017-10-10T06:22:21.985Z,100795
2017-10-10T06:24:49.312Z,100798
2017-10-10T06:27:15.577Z,100798
2017-10-10T06:29:42.615Z,100806
2017-10-10T06:32:09.686Z,100805
2017-10-10T06:34:35.967Z,100805
2017-10-10T06:37:02.495Z,100808
2017-10-10T06:39:29.891Z,100801
2017-10-10T06:41:57.226Z,100798
2017-10-10T06:44:23.548Z,100800
2017-10-10T06:46:50.485Z,100801
2017-10-10T06:49:16.777Z,100804
2017-10-10T06:51:43.159Z,100806
2017-10-10T06:54:09.730Z,100804
2017-10-10T06:56:36.008Z,100807
2017-10-10T06:59:02.294Z,100807
2017-10-10T07:01:28.607Z,100806
2017-10-10T07:03:54.907Z,100805
2017-10-10T07:06:21.217Z,100809
2017-10-10T07:08:48.616Z,100812
2017-10-10T07:11:14.887Z,100812
2017-10-10T07:13:41.165Z,100818
2017-10-10T07:16:08.512Z,100815
2017-10-10T07:18:35.160Z,100815
2017-10-10T07:21:01.457Z,100819
2017-10-10T07:23:28.161Z,100818
2017-10-10T07:25:54.496Z,100824
2017-10-10T07:28:20.758Z,100825
2017-10-10T07:30:47.116Z,100823
2017-10-10T07:33:14.137Z,100824
2017-10-10T07:35:40.418Z,100820
2017-10-10T07:38:06.815Z,100823
2017-10-10T07:40:33.837Z,100826
2017-10-10T07:43:00.106Z,100829
2017-10-10T07:45:27.379Z,100826
2017-10-10T07:47:53.816Z,100825
2017-10-10T07:50:20.077Z,100821
2017-10-10T07:52:46.583Z,100826
2017-10-10T07:55:12.882Z,100817
2017-10-10T07:57:39.896Z,100816
2017-10-10T08:00:06.533Z,100819
2017-10-10T08:02:32.937Z,100817
2017-10-10T08:04:59.211Z,100813
2017-10-10T08:07:25.606Z,100808
2017-10-10T08:09:51.884Z,100817
2017-10-10T08:12:18.887Z,100819
2017-10-10T08:14:45.577Z,100817
2017-10-10T08:17:12.581Z,100817
2017-10-10T08:19:38.836Z,100820
2017-10-10T08:22:05.298Z,100820
2017-10-10T08:24:31.597Z,100822
2017-10-10T08:26:57.979Z,100822
2017-10-10T08:29:24.295Z,100821
2017-10-10T08:31:50.584Z,100825
2017-10-10T08:34:16.823Z,100822
2017-10-10T08:36:43.888Z,100828
2017-10-10T08:39:10.901Z,100827
2017-10-10T08:41:37.166Z,100826
2017-10-10T08:44:04.212Z,100826
2017-10-10T08:46:30.473Z,100824
2017-10-10T08:48:56.766Z,100823
2017-10-10T08:51:23.441Z,100824
2017-10-10T08:53:51.452Z,100819
2017-10-10T08:56:17.972Z,100821
2017-10-10T08:58:44.426Z,100824
2017-10-10T09:01:11.429Z,100824
2017-10-10T09:03:37.815Z,100825
2017-10-10T09:06:05.504Z,100823
2017-10-10T09:08:31.890Z,100825
2017-10-10T09:10:58.446Z,100823
2017-10-10T09:13:25.526Z,100822
2017-10-10T09:15:51.966Z,100823
2017-10-10T09:18:18.469Z,100823
2017-10-10T09:20:44.854Z,100824
2017-10-10T09:23:11.152Z,100827
2017-10-10T09:25:37.708Z,100819
2017-10-10T09:28:04.350Z,100826
2017-10-10T09:30:30.620Z,100824
2017-10-10T09:32:58.148Z,100821
2017-10-10T09:35:25.035Z,100818
2017-10-10T09:37:51.350Z,100819
2017-10-10T09:40:18.353Z,100824
2017-10-10T09:42:44.668Z,100823
2017-10-10T09:45:10.928Z,100820
2017-10-10T09:47:37.213Z,100820
2017-10-10T09:50:03.600Z,100823
2017-10-10T09:52:29.866Z,100825
2017-10-10T09:54:56.133Z,100820
2017-10-10T09:57:22.691Z,100827
2017-10-10T09:59:48.941Z,100826
2017-10-10T10:02:15.947Z,100830
2017-10-10T10:04:43.069Z,100829
2017-10-10T10:07:09.373Z,100827
2017-10-10T10:09:36.418Z,100828
2017-10-10T10:12:03.734Z,100828
2017-10-10T10:14:29.994Z,100837
2017-10-10T10:16:56.992Z,100832
2017-10-10T10:19:23.287Z,100837
2017-10-10T10:21:50.299Z,100836
2017-10-10T10:24:16.580Z,100834
2017-10-10T10:26:42.899Z,100827
2017-10-10T10:29:09.459Z,100825
2017-10-10T10:31:35.719Z,100824
2017-10-10T10:34:02.154Z,100824
2017-10-10T10:36:28.436Z,100821
2017-10-10T10:38:54.746Z,100823
2017-10-10T10:41:21.060Z,100823
2017-10-10T10:43:48.062Z,100816
2017-10-10T10:46:14.336Z,100820
2017-10-10T10:48:41.463Z,100812
2017-10-10T10:51:07.713Z,100811
2017-10-10T10:53:34.711Z,100802
2017-10-10T10:56:01.006Z,100802
2017-10-10T10:58:27.276Z,100800
2017-10-10T11:00:53.548Z,100797
2017-10-10T11:03:20.871Z,100795
2017-10-10T11:05:47.110Z,100797
2017-10-10T11:08:13.375Z,100797
2017-10-10T11:10:39.702Z,100788
2017-10-10T11:13:05.978Z,100788
2017-10-10T11:15:32.252Z,100783
2017-10-10T11:17:59.355Z,100786
2017-10-10T11:20:25.596Z,100787
2017-10-10T11:22:51.912Z,100788
2017-10-10T11:25:18.230Z,100782
2017-10-10T11:27:44.511Z,100764
2017-10-10T11:30:11.509Z,100776
2017-10-10T11:32:37.806Z,100777
2017-10-10T11:35:04.125Z,100776
2017-10-10T11:37:31.123Z,100786
2017-10-10T11:39:57.437Z,100784
2017-10-10T11:42:23.698Z,100790
2017-10-10T11:44:50.002Z,100789
2017-10-10T11:47:16.335Z,100792
2017-10-10T11:49:43.014Z,100785
2017-10-10T11:52:10.052Z,100784
2017-10-10T11:54:39.080Z,100774
2017-10-10T11:57:06.680Z,100779
2017-10-10T11:59:34.471Z,100786
2017-10-10T12:02:02.043Z,100782
2017-10-10T12:04:29.154Z,100778
2017-10-10T12:06:57.446Z,100780
2017-10-10T12:09:24.272Z,100775
2017-10-10T12:11:52.492Z,100783
2017-10-10T12:14:20.375Z,100784
2017-10-10T12:16:47.694Z,100776
2017-10-10T12:19:16.083Z,100776
2017-10-10T12:21:43.918Z,100778
2017-10-10T12:24:10.307Z,100789
2017-10-10T12:26:36.580Z,100785
2017-10-10T12:29:03.391Z,100779
2017-10-10T12:31:29.680Z,100774
2017-10-10T12:33:56.739Z,100766
2017-10-10T12:36:24.084Z,100770
2017-10-10T12:38:51.589Z,100767
2017-10-10T12:41:17.862Z,100765
2017-10-10T12:43:44.895Z,100766
2017-10-10T12:46:11.759Z,100768
2017-10-10T12:48:39.303Z,100772
2017-10-10T12:51:06.148Z,100771
2017-10-10T12:53:32.468Z,100771
2017-10-10T12:55:58.888Z,100772
2017-10-10T12:58:26.209Z,100767
2017-10-10T13:00:52.787Z,100765
2017-10-10T13:03:20.313Z,100756
2017-10-10T13:05:47.797Z,100757
2017-10-10T13:08:14.071Z,100755
2017-10-10T13:10:40.351Z,100757
2017-10-10T13:13:07.328Z,100747
2017-10-10T13:15:34.384Z,100751
2017-10-10T13:18:01.408Z,100749
2017-10-10T13:20:28.070Z,100751
2017-10-10T13:22:55.748Z,100746
2017-10-10T13:25:22.008Z,100754
2017-10-10T13:27:48.342Z,100755
2017-10-10T13:30:14.804Z,100757
2017-10-10T13:32:41.619Z,100757
2017-10-10T13:35:09.013Z,100758
2017-10-10T13:37:36.468Z,100751
2017-10-10T13:40:04.037Z,100750
2017-10-10T13:42:31.767Z,100752
2017-10-10T13:44:58.107Z,100759
2017-10-10T13:47:24.724Z,100754
2017-10-10T13:49:51.094Z,100755
2017-10-10T13:52:18.124Z,100755
2017-10-10T13:54:44.404Z,100753
2017-10-10T13:57:11.095Z,100758
2017-10-10T13:59:37.379Z,100751
2017-10-10T14:02:03.651Z,100759
2017-10-10T14:04:30.366Z,100759
2017-10-10T14:06:56.635Z,100753
2017-10-10T14:09:22.931Z,100753
2017-10-10T14:11:49.227Z,100754
2017-10-10T14:14:15.562Z,100749
2017-10-10T14:16:41.887Z,100751
2017-10-10T14:19:08.673Z,100745
2017-10-10T14:21:34.980Z,100747
2017-10-10T14:24:01.494Z,100746
2017-10-10T14:26:28.247Z,100744
2017-10-10T14:28:54.540Z,100751
2017-10-10T14:31:21.550Z,100741
2017-10-10T14:33:48.080Z,100745
2017-10-10T14:36:15.102Z,100752
2017-10-10T14:38:41.354Z,100744
2017-10-10T14:41:08.611Z,100743
2017-10-10T14:43:34.871Z,100742
2017-10-10T14:46:01.879Z,100743
2017-10-10T14:48:28.272Z,100737
2017-10-10T14:50:54.550Z,100729
2017-10-10T14:53:20.802Z,100735
2017-10-10T14:55:47.831Z,100739
2017-10-10T14:58:14.292Z,100733
2017-10-10T15:00:41.286Z,100729
2017-10-10T15:03:07.695Z,100729
2017-10-10T15:05:34.413Z,100725
2017-10-10T15:08:00.650Z,100728
2017-10-10T15:10:27.268Z,100730
2017-10-10T15:12:54.614Z,100722
2017-10-10T15:15:21.610Z,100729
2017-10-10T15:17:47.933Z,100726
2017-10-10T15:20:14.182Z,100721
2017-10-10T15:22:40.435Z,100730
2017-10-10T15:25:07.298Z,100733
2017-10-10T15:27:34.297Z,100733
2017-10-10T15:30:00.569Z,100737
2017-10-10T15:32:28.186Z,100736
2017-10-10T15:34:54.609Z,100742
2017-10-10T15:37:20.892Z,100735
2017-10-10T15:39:48.172Z,100734
2017-10-10T15:42:14.514Z,100738
2017-10-10T15:44:40.787Z,100743
2017-10-10T15:47:07.627Z,100740
2017-10-10T15:49:33.972Z,100741
2017-10-10T15:52:00.296Z,100738
2017-10-10T15:54:26.896Z,100737
2017-10-10T15:56:53.951Z,100733
2017-10-10T15:59:20.368Z,100731
2017-10-10T16:01:46.665Z,100740
2017-10-10T16:04:13.606Z,100740
2017-10-10T16:06:39.967Z,100739
2017-10-10T16:09:07.107Z,100746
2017-10-10T16:11:33.459Z,100745
2017-10-10T16:13:59.742Z,100743
2017-10-10T16:16:26.900Z,100746
2017-10-10T16:18:53.363Z,100746
2017-10-10T16:21:20.077Z,100748
2017-10-10T16:23:46.731Z,100748
2017-10-10T16:26:12.983Z,100743
2017-10-10T16:28:39.270Z,100745
2017-10-10T16:31:05.810Z,100747
2017-10-10T16:33:32.445Z,100750
2017-10-10T16:35:58.780Z,100748
2017-10-10T16:38:25.468Z,100754
2017-10-10T16:40:51.761Z,100752
2017-10-10T16:43:18.066Z,100753
2017-10-10T16:45:44.369Z,100754
2017-10-10T16:48:10.632Z,100754
2017-10-10T16:50:36.912Z,100759
2017-10-10T16:53:03.579Z,100761
2017-10-10T16:55:30.595Z,100756
2017-10-10T16:57:56.859Z,100746
2017-10-10T17:00:24.189Z,100753
2017-10-10T17:02:50.726Z,100754
2017-10-10T17:05:17.009Z,100758
2017-10-10T17:07:43.476Z,100757
2017-10-10T17:10:09.771Z,100760
2017-10-10T17:12:36.218Z,100753
2017-10-10T17:15:02.542Z,100754
2017-10-10T17:17:28.889Z,100757
2017-10-10T17:19:55.169Z,100761
2017-10-10T17:22:22.112Z,100759
2017-10-10T17:24:49.153Z,100753
2017-10-10T17:27:16.176Z,100765
2017-10-10T17:29:43.206Z,100758
2017-10-10T17:32:09.466Z,100759
2017-10-10T17:34:36.502Z,100764
2017-10-10T17:37:03.433Z,100766
2017-10-10T17:39:29.823Z,100764
2017-10-10T17:41:56.163Z,100773
2017-10-10T17:44:22.829Z,100761
2017-10-10T17:46:49.894Z,100766
2017-10-10T17:49:16.225Z,100773
2017-10-10T17:51:42.557Z,100763
2017-10-10T17:54:08.827Z,100764
2017-10-10T17:56:35.140Z,100764
2017-10-10T17:59:01.818Z,100758
2017-10-10T18:01:28.911Z,100765
2017-10-10T18:03:55.949Z,100763
2017-10-10T18:06:22.835Z,100765
2017-10-10T18:08:49.108Z,100770
2017-10-10T18:11:15.367Z,100770
2017-10-10T18:13:42.523Z,100766
2017-10-10T18:16:09.520Z,100766
2017-10-10T18:18:35.849Z,100762
2017-10-10T18:21:02.427Z,100765
2017-10-10T18:23:29.440Z,100768
2017-10-10T18:25:55.736Z,100764
2017-10-10T18:28:22.452Z,100772
2017-10-10T18:30:49.455Z,100777
2017-10-10T18:33:16.016Z,100778
2017-10-10T18:35:43.402Z,100776
2017-10-10T18:38:09.745Z,100779
2017-10-10T18:40:36.126Z,100782
2017-10-10T18:43:02.872Z,100775
2017-10-10T18:45:29.215Z,100778
2017-10-10T18:47:57.122Z,100778
2017-10-10T18:50:24.536Z,100778
2017-10-10T18:52:50.867Z,100785
2017-10-10T18:55:17.863Z,100784
2017-10-10T18:57:44.495Z,100783
2017-10-10T19:00:11.070Z,100785
2017-10-10T19:02:37.366Z,100787
2017-10-10T19:05:03.753Z,100786
2017-10-10T19:07:30.747Z,100791
2017-10-10T19:09:57.386Z,100786
2017-10-10T19:12:24.191Z,100780
2017-10-10T19:14:50.525Z,100778
2017-10-10T19:17:17.541Z,100783
2017-10-10T19:19:44.696Z,100775
2017-10-10T19:22:11.697Z,100767
2017-10-10T19:24:38.395Z,100777
2017-10-10T19:27:05.822Z,100776
2017-10-10T19:29:32.557Z,100782
2017-10-10T19:31:58.928Z,100784
2017-10-10T19:34:25.620Z,100782
2017-10-10T19:36:52.690Z,100783
2017-10-10T19:39:19.742Z,100785
2017-10-10T19:41:46.969Z,100786
2017-10-10T19:44:13.294Z,100792
2017-10-10T19:46:39.792Z,100793
2017-10-10T19:49:06.162Z,100793
2017-10-10T19:51:32.492Z,100799
2017-10-10T19:54:00.508Z,100797
2017-10-10T19:56:28.060Z,100797
2017-10-10T19:58:54.879Z,100802
2017-10-10T20:01:22.296Z,100802
2017-10-10T20:03:49.506Z,100813
2017-10-10T20:06:15.843Z,100810
2017-10-10T20:08:42.828Z,100813
2017-10-10T20:11:09.116Z,100819
2017-10-10T20:13:35.415Z,100822
2017-10-10T20:16:01.694Z,100830
2017-10-10T20:18:28.148Z,100828
2017-10-10T20:20:54.413Z,100833
2017-10-10T20:23:20.666Z,100842
2017-10-10T20:25:47.709Z,100847
2017-10-10T20:28:14.712Z,100848
2017-10-10T20:30:41.717Z,100848
2017-10-10T20:33:08.032Z,100846
2017-10-10T20:35:35.027Z,100849
2017-10-10T20:38:01.294Z,100856
2017-10-10T20:40:28.352Z,100859
2017-10-10T20:42:55.383Z,100856
2017-10-10T20:45:22.397Z,100860
2017-10-10T20:47:48.695Z,100857
2017-10-10T20:50:15.008Z,100860
2017-10-10T20:52:42.001Z,100861
2017-10-10T20:55:08.749Z,100863
2017-10-10T20:57:34.994Z,100857
2017-10-10T21:00:01.270Z,100861
2017-10-10T21:02:27.854Z,100855
2017-10-10T21:04:54.167Z,100853
2017-10-10T21:07:20.436Z,100852
2017-10-10T21:09:48.067Z,100855
2017-10-10T21:12:14.331Z,100857
2017-10-10T21:14:41.353Z,100853
2017-10-10T21:17:07.651Z,100855
2017-10-10T21:19:33.911Z,100854
2017-10-10T21:22:00.196Z,100851
2017-10-10T21:24:26.496Z,100854
2017-10-10T21:26:53.512Z,100857
2017-10-10T21:29:19.788Z,100853
2017-10-10T21:31:46.232Z,100855
2017-10-10T21:34:12.511Z,100857
2017-10-10T21:36:38.787Z,100859
2017-10-10T21:39:05.087Z,100856
2017-10-10T21:41:32.469Z,100851
2017-10-10T21:43:58.727Z,100852
2017-10-10T21:46:25.035Z,100851
2017-10-10T21:48:51.279Z,100849
2017-10-10T21:51:17.522Z,100850
2017-10-10T21:53:43.841Z,100848
2017-10-10T21:56:10.115Z,100847
2017-10-10T21:58:37.120Z,100847
2017-10-10T22:01:03.425Z,100847
2017-10-10T22:03:29.677Z,100838
2017-10-10T22:05:55.942Z,100840
2017-10-10T22:08:22.976Z,100839
2017-10-10T22:10:49.233Z,100835
2017-10-10T22:13:16.239Z,100833
2017-10-10T22:15:42.531Z,100838
2017-10-10T22:18:08.789Z,100833
2017-10-10T22:20:35.059Z,100836
2017-10-10T22:23:02.381Z,100829
2017-10-10T22:25:28.657Z,100830
2017-10-10T22:27:54.919Z,100836
2017-10-10T22:30:21.673Z,100828
2017-10-10T22:32:47.928Z,100831
2017-10-10T22:35:14.944Z,100831
2017-10-10T22:37:41.587Z,100835
2017-10-10T22:40:08.587Z,100829
2017-10-10T22:42:34.896Z,100835
2017-10-10T22:45:02.032Z,100828
2017-10-10T22:47:28.286Z,100833
2017-10-10T22:49:55.283Z,100833
2017-10-10T22:52:21.592Z,100831
2017-10-10T22:54:47.859Z,100827
2017-10-10T22:57:14.141Z,100830
2017-10-10T22:59:40.450Z,100829
2017-10-10T23:02:06.771Z,100830
2017-10-10T23:04:33.785Z,100827
2017-10-10T23:07:00.350Z,100821
2017-10-10T23:09:27.405Z,100818
2017-10-10T23:11:54.419Z,100818
2017-10-10T23:14:21.016Z,100824
2017-10-10T23:16:47.434Z,100818
2017-10-10T23:19:13.658Z,100818
2017-10-10T23:21:40.233Z,100819
2017-10-10T23:24:06.462Z,100817
2017-10-10T23:26:33.567Z,100817
2017-10-10T23:29:00.841Z,100816
2017-10-10T23:31:27.071Z,100820
2017-10-10T23:33:53.295Z,100823
2017-10-10T23:36:19.543Z,100824
2017-10-10T23:38:45.754Z,100824
2017-10-10T23:41:11.971Z,100830
2017-10-10T23:43:38.241Z,100823
2017-10-10T23:46:04.470Z,100823
2017-10-10T23:48:30.687Z,100822
2017-10-10T23:50:57.028Z,100819
2017-10-10T23:53:23.287Z,100815
2017-10-10T23:55:50.254Z,100810
2017-10-10T23:58:16.730Z,100805
